<?xml version="1.0" encoding="UTF-8" standalone="no" ?>
<gpx xmlns="http://www.topografix.com/GPX/1/1" xmlns:xsi="http://www.w3.org/2001/XMLSchema-instance" xsi:schemaLocation="http://www.topografix.com/GPX/1/1 http://www.topografix.com/GPX/1/1/gpx.xsd" version="1.1" creator="VisuGPX - https://www.visugpx.com">
  <metadata>
    <name>Abries SDR</name>
  </metadata>
  <wpt lat="44.7956" lon="6.92592">
    <ele>1571</ele>
  </wpt>
  <wpt lat="44.80157" lon="6.91439">
    <ele>1954</ele>
  </wpt>
  <wpt lat="44.83212" lon="6.90528">
    <ele>2662</ele>
  </wpt>
  <wpt lat="44.82511" lon="6.94159">
    <ele>1781</ele>
  </wpt>
  <wpt lat="44.82948" lon="6.94087">
    <ele>1813</ele>
  </wpt>
  <wpt lat="44.84948" lon="6.94649">
    <ele>2429</ele>
  </wpt>
  <wpt lat="44.85525" lon="6.93276">
    <ele>2686</ele>
  </wpt>
  <wpt lat="44.86127" lon="6.93145">
    <ele>3092</ele>
  </wpt>
  <wpt lat="44.82511" lon="6.94159">
    <ele>1781</ele>
  </wpt>
  <wpt lat="44.82891" lon="6.9414">
    <ele>1830</ele>
  </wpt>
  <wpt lat="44.83196" lon="7.00679">
    <ele>2614</ele>
  </wpt>
  <wpt lat="44.82511" lon="6.94159">
    <ele>1781</ele>
  </wpt>
  <wpt lat="44.82891" lon="6.9414">
    <ele>1830</ele>
  </wpt>
  <wpt lat="44.83547" lon="6.99793">
    <ele>2522</ele>
  </wpt>
  <wpt lat="44.8385" lon="7.00435">
    <ele>2803</ele>
  </wpt>
  <wpt lat="44.82511" lon="6.94159">
    <ele>1781</ele>
  </wpt>
  <wpt lat="44.82891" lon="6.9414">
    <ele>1830</ele>
  </wpt>
  <wpt lat="44.83547" lon="6.99793">
    <ele>2522</ele>
  </wpt>
  <wpt lat="44.84093" lon="6.99998">
    <ele>2874</ele>
  </wpt>
  <wpt lat="44.7956" lon="6.92592">
    <ele>1571</ele>
  </wpt>
  <wpt lat="44.80157" lon="6.91439">
    <ele>1954</ele>
  </wpt>
  <wpt lat="44.82414" lon="6.89209">
    <ele>2344</ele>
  </wpt>
  <wpt lat="44.8303" lon="6.89297">
    <ele>2399</ele>
  </wpt>
  <wpt lat="44.84389" lon="6.90492">
    <ele>2877</ele>
  </wpt>
  <wpt lat="44.81581" lon="6.9467">
    <ele>1710</ele>
  </wpt>
  <wpt lat="44.81329" lon="6.9528">
    <ele>1751</ele>
  </wpt>
  <wpt lat="44.81245" lon="6.95835">
    <ele>1809</ele>
  </wpt>
  <wpt lat="44.81389" lon="6.98449">
    <ele>1950</ele>
  </wpt>
  <wpt lat="44.82375" lon="7.0068">
    <ele>2520</ele>
  </wpt>
  <wpt lat="44.83084" lon="7.01088">
    <ele>2566</ele>
  </wpt>
  <wpt lat="44.82583" lon="7.01892">
    <ele>2661</ele>
  </wpt>
  <wpt lat="44.76756" lon="6.94934">
    <ele>1736</ele>
  </wpt>
  <wpt lat="44.75506" lon="6.93974">
    <ele>1924</ele>
  </wpt>
  <wpt lat="44.75201" lon="6.94055">
    <ele>1962</ele>
  </wpt>
  <wpt lat="44.73659" lon="6.94388">
    <ele>2190</ele>
  </wpt>
  <wpt lat="44.73624" lon="6.96532">
    <ele>2767</ele>
  </wpt>
  <wpt lat="44.7697" lon="6.95353">
    <ele>1725</ele>
  </wpt>
  <wpt lat="44.74148" lon="6.96408">
    <ele>2781</ele>
  </wpt>
  <wpt lat="44.76756" lon="6.94934">
    <ele>1736</ele>
  </wpt>
  <wpt lat="44.75506" lon="6.93974">
    <ele>1924</ele>
  </wpt>
  <wpt lat="44.75201" lon="6.94055">
    <ele>1962</ele>
  </wpt>
  <wpt lat="44.73659" lon="6.94388">
    <ele>2190</ele>
  </wpt>
  <wpt lat="44.72698" lon="6.95272">
    <ele>2313</ele>
  </wpt>
  <wpt lat="44.7211" lon="6.96043">
    <ele>2520</ele>
  </wpt>
  <wpt lat="44.71625" lon="6.96239">
    <ele>2702</ele>
  </wpt>
  <wpt lat="44.71473" lon="6.96795">
    <ele>2765</ele>
  </wpt>
  <wpt lat="44.71082" lon="6.96665">
    <ele>2885</ele>
  </wpt>
  <trk>
    <name><![CDATA[Tour de la Lauze par le col et sommet de Querlaye]]></name>
    <extensions>
      <line xmlns="http://www.topografix.com/GPX/gpx_style/0/2">
        <color>0000FF</color>
        <width>4</width>
          <extensions>
            <sens>1</sens>
          </extensions>
      </line>
    </extensions>
    <trkseg>
      <trkpt lat="44.79141" lon="6.92702">
        <ele>1540</ele>
        <time>2011-04-05T06:14:05Z</time>
      </trkpt>
      <trkpt lat="44.79133" lon="6.92558">
        <ele>1556</ele>
        <time>2011-04-05T06:21:19Z</time>
      </trkpt>
      <trkpt lat="44.79171" lon="6.92363">
        <ele>1556.1</ele>
        <time>2011-04-05T06:24:27Z</time>
      </trkpt>
      <trkpt lat="44.79152" lon="6.92293">
        <ele>1567</ele>
        <time>2011-04-05T06:27:40Z</time>
      </trkpt>
      <trkpt lat="44.79128" lon="6.92236">
        <ele>1578.5</ele>
        <time>2011-04-05T06:28:54Z</time>
      </trkpt>
      <trkpt lat="44.79123" lon="6.92167">
        <ele>1581.4</ele>
        <time>2011-04-05T06:30:16Z</time>
      </trkpt>
      <trkpt lat="44.7908" lon="6.92188">
        <ele>1620.9</ele>
        <time>2011-04-05T06:31:56Z</time>
      </trkpt>
      <trkpt lat="44.79063" lon="6.92255">
        <ele>1629.6</ele>
        <time>2011-04-05T06:33:36Z</time>
      </trkpt>
      <trkpt lat="44.79071" lon="6.92326">
        <ele>1637.2</ele>
        <time>2011-04-05T06:34:23Z</time>
      </trkpt>
      <trkpt lat="44.7903" lon="6.92296">
        <ele>1663.5</ele>
        <time>2011-04-05T06:43:44Z</time>
      </trkpt>
      <trkpt lat="44.78997" lon="6.92345">
        <ele>1691.2</ele>
        <time>2011-04-05T06:45:08Z</time>
      </trkpt>
      <trkpt lat="44.78996" lon="6.92408">
        <ele>1693</ele>
        <time>2011-04-05T06:46:34Z</time>
      </trkpt>
      <trkpt lat="44.78952" lon="6.92444">
        <ele>1703.8</ele>
        <time>2011-04-05T06:48:32Z</time>
      </trkpt>
      <trkpt lat="44.78908" lon="6.92483">
        <ele>1708.9</ele>
        <time>2011-04-05T06:50:04Z</time>
      </trkpt>
      <trkpt lat="44.78872" lon="6.92438">
        <ele>1732.3</ele>
        <time>2011-04-05T06:52:06Z</time>
      </trkpt>
      <trkpt lat="44.78831" lon="6.92467">
        <ele>1740.1</ele>
        <time>2011-04-05T06:56:54Z</time>
      </trkpt>
      <trkpt lat="44.78786" lon="6.92471">
        <ele>1760.4</ele>
        <time>2011-04-05T06:58:24Z</time>
      </trkpt>
      <trkpt lat="44.78743" lon="6.92493">
        <ele>1773.1</ele>
        <time>2011-04-05T07:00:33Z</time>
      </trkpt>
      <trkpt lat="44.78699" lon="6.92505">
        <ele>1785.5</ele>
        <time>2011-04-05T07:01:42Z</time>
      </trkpt>
      <trkpt lat="44.78732" lon="6.92409">
        <ele>1811.5</ele>
        <time>2011-04-05T07:05:29Z</time>
      </trkpt>
      <trkpt lat="44.78736" lon="6.92347">
        <ele>1826.6</ele>
        <time>2011-04-05T07:06:59Z</time>
      </trkpt>
      <trkpt lat="44.78746" lon="6.92281">
        <ele>1832.3</ele>
        <time>2011-04-05T07:08:48Z</time>
      </trkpt>
      <trkpt lat="44.78745" lon="6.92214">
        <ele>1838.5</ele>
        <time>2011-04-05T07:09:41Z</time>
      </trkpt>
      <trkpt lat="44.78723" lon="6.92154">
        <ele>1852.5</ele>
        <time>2011-04-05T07:11:08Z</time>
      </trkpt>
      <trkpt lat="44.78682" lon="6.92123">
        <ele>1875.3</ele>
        <time>2011-04-05T07:13:36Z</time>
      </trkpt>
      <trkpt lat="44.78672" lon="6.92051">
        <ele>1884.7</ele>
        <time>2011-04-05T07:14:57Z</time>
      </trkpt>
      <trkpt lat="44.7865" lon="6.91984">
        <ele>1897.9</ele>
        <time>2011-04-05T07:16:50Z</time>
      </trkpt>
      <trkpt lat="44.7864" lon="6.91921">
        <ele>1902.7</ele>
        <time>2011-04-05T07:18:26Z</time>
      </trkpt>
      <trkpt lat="44.78611" lon="6.9186">
        <ele>1914.2</ele>
        <time>2011-04-05T07:22:27Z</time>
      </trkpt>
      <trkpt lat="44.78592" lon="6.91797">
        <ele>1924.6</ele>
        <time>2011-04-05T07:23:32Z</time>
      </trkpt>
      <trkpt lat="44.78538" lon="6.91738">
        <ele>1944.3</ele>
        <time>2011-04-05T07:25:43Z</time>
      </trkpt>
      <trkpt lat="44.78495" lon="6.91694">
        <ele>1958</ele>
        <time>2011-04-05T07:27:37Z</time>
      </trkpt>
      <trkpt lat="44.78468" lon="6.91644">
        <ele>1968.1</ele>
        <time>2011-04-05T07:29:55Z</time>
      </trkpt>
      <trkpt lat="44.78441" lon="6.91584">
        <ele>1981</ele>
        <time>2011-04-05T07:31:30Z</time>
      </trkpt>
      <trkpt lat="44.78426" lon="6.91515">
        <ele>1993</ele>
        <time>2011-04-05T07:32:54Z</time>
      </trkpt>
      <trkpt lat="44.78412" lon="6.91447">
        <ele>2008.6</ele>
        <time>2011-04-05T07:34:50Z</time>
      </trkpt>
      <trkpt lat="44.78392" lon="6.91358">
        <ele>2030.5</ele>
        <time>2011-04-05T07:36:47Z</time>
      </trkpt>
      <trkpt lat="44.78387" lon="6.91296">
        <ele>2042.7</ele>
        <time>2011-04-05T07:39:15Z</time>
      </trkpt>
      <trkpt lat="44.78369" lon="6.91221">
        <ele>2050.5</ele>
        <time>2011-04-05T07:40:31Z</time>
      </trkpt>
      <trkpt lat="44.78312" lon="6.91223">
        <ele>2081.7</ele>
        <time>2011-04-05T07:43:07Z</time>
      </trkpt>
      <trkpt lat="44.78303" lon="6.91285">
        <ele>2090.4</ele>
        <time>2011-04-05T07:44:47Z</time>
      </trkpt>
      <trkpt lat="44.78279" lon="6.91222">
        <ele>2098.3</ele>
        <time>2011-04-05T07:49:35Z</time>
      </trkpt>
      <trkpt lat="44.78246" lon="6.91159">
        <ele>2116.3</ele>
        <time>2011-04-05T07:52:34Z</time>
      </trkpt>
      <trkpt lat="44.78225" lon="6.91103">
        <ele>2130.4</ele>
        <time>2011-04-05T07:55:47Z</time>
      </trkpt>
      <trkpt lat="44.78199" lon="6.91045">
        <ele>2146.5</ele>
        <time>2011-04-05T07:57:45Z</time>
      </trkpt>
      <trkpt lat="44.7816" lon="6.91013">
        <ele>2165.7</ele>
        <time>2011-04-05T08:00:57Z</time>
      </trkpt>
      <trkpt lat="44.78116" lon="6.90972">
        <ele>2180.9</ele>
        <time>2011-04-05T08:03:12Z</time>
      </trkpt>
      <trkpt lat="44.78074" lon="6.91035">
        <ele>2205.4</ele>
        <time>2011-04-05T08:05:08Z</time>
      </trkpt>
      <trkpt lat="44.78013" lon="6.91031">
        <ele>2226.1</ele>
        <time>2011-04-05T08:08:52Z</time>
      </trkpt>
      <trkpt lat="44.77938" lon="6.91064">
        <ele>2259.1</ele>
        <time>2011-04-05T08:11:07Z</time>
      </trkpt>
      <trkpt lat="44.77902" lon="6.91113">
        <ele>2282</ele>
        <time>2011-04-05T08:13:23Z</time>
      </trkpt>
      <trkpt lat="44.77885" lon="6.91174">
        <ele>2295.9</ele>
        <time>2011-04-05T08:14:47Z</time>
      </trkpt>
      <trkpt lat="44.77841" lon="6.91185">
        <ele>2311.4</ele>
        <time>2011-04-05T08:16:49Z</time>
      </trkpt>
      <trkpt lat="44.77815" lon="6.9123">
        <ele>2318.7</ele>
        <time>2011-04-05T08:20:09Z</time>
      </trkpt>
      <trkpt lat="44.77766" lon="6.91207">
        <ele>2339</ele>
        <time>2011-04-05T08:23:40Z</time>
      </trkpt>
      <trkpt lat="44.77734" lon="6.91158">
        <ele>2357.9</ele>
        <time>2011-04-05T08:25:32Z</time>
      </trkpt>
      <trkpt lat="44.77685" lon="6.91116">
        <ele>2374.3</ele>
        <time>2011-04-05T08:27:36Z</time>
      </trkpt>
      <trkpt lat="44.7764" lon="6.91093">
        <ele>2385.9</ele>
        <time>2011-04-05T08:29:50Z</time>
      </trkpt>
      <trkpt lat="44.77589" lon="6.91094">
        <ele>2398.2</ele>
        <time>2011-04-05T08:31:30Z</time>
      </trkpt>
      <trkpt lat="44.77541" lon="6.91086">
        <ele>2403.8</ele>
        <time>2011-04-05T08:34:05Z</time>
      </trkpt>
      <trkpt lat="44.77442" lon="6.9106">
        <ele>2416.9</ele>
        <time>2011-04-05T08:36:20Z</time>
      </trkpt>
      <trkpt lat="44.77399" lon="6.91037">
        <ele>2430.9</ele>
        <time>2011-04-05T08:38:07Z</time>
      </trkpt>
      <trkpt lat="44.7735" lon="6.91038">
        <ele>2445.6</ele>
        <time>2011-04-05T08:39:43Z</time>
      </trkpt>
      <trkpt lat="44.77304" lon="6.91031">
        <ele>2457.3</ele>
        <time>2011-04-05T08:41:18Z</time>
      </trkpt>
      <trkpt lat="44.77253" lon="6.91007">
        <ele>2467</ele>
        <time>2011-04-05T08:42:42Z</time>
      </trkpt>
      <trkpt lat="44.77206" lon="6.90991">
        <ele>2477.8</ele>
        <time>2011-04-05T08:44:39Z</time>
      </trkpt>
      <trkpt lat="44.77168" lon="6.9095">
        <ele>2492.3</ele>
        <time>2011-04-05T08:46:15Z</time>
      </trkpt>
      <trkpt lat="44.77128" lon="6.9089">
        <ele>2512.4</ele>
        <time>2011-04-05T08:48:21Z</time>
      </trkpt>
      <trkpt lat="44.77094" lon="6.90847">
        <ele>2531.9</ele>
        <time>2011-04-05T08:50:55Z</time>
      </trkpt>
      <trkpt lat="44.77041" lon="6.90812">
        <ele>2547.6</ele>
        <time>2011-04-05T08:52:51Z</time>
      </trkpt>
      <trkpt lat="44.76992" lon="6.908">
        <ele>2560.9</ele>
        <time>2011-04-05T08:54:12Z</time>
      </trkpt>
      <trkpt lat="44.76957" lon="6.90769">
        <ele>2580.7</ele>
        <time>2011-04-05T08:56:33Z</time>
      </trkpt>
      <trkpt lat="44.7691" lon="6.90771">
        <ele>2587.4</ele>
        <time>2011-04-05T08:58:10Z</time>
      </trkpt>
      <trkpt lat="44.7692" lon="6.90773">
        <ele>2586.4</ele>
        <time>2011-04-05T09:03:39Z</time>
      </trkpt>
      <trkpt lat="44.7687" lon="6.90759">
        <ele>2584.1</ele>
        <time>2011-04-05T09:17:47Z</time>
      </trkpt>
      <trkpt lat="44.7681" lon="6.9072">
        <ele>2571.4</ele>
        <time>2011-04-05T09:18:04Z</time>
      </trkpt>
      <trkpt lat="44.76714" lon="6.90642">
        <ele>2564.3</ele>
        <time>2011-04-05T09:18:46Z</time>
      </trkpt>
      <trkpt lat="44.76671" lon="6.90613">
        <ele>2560</ele>
        <time>2011-04-05T09:19:29Z</time>
      </trkpt>
      <trkpt lat="44.76598" lon="6.90568">
        <ele>2544.5</ele>
        <time>2011-04-05T09:19:56Z</time>
      </trkpt>
      <trkpt lat="44.76547" lon="6.90564">
        <ele>2541.5</ele>
        <time>2011-04-05T09:21:31Z</time>
      </trkpt>
      <trkpt lat="44.76502" lon="6.90564">
        <ele>2537.9</ele>
        <time>2011-04-05T09:24:59Z</time>
      </trkpt>
      <trkpt lat="44.76448" lon="6.90557">
        <ele>2535</ele>
        <time>2011-04-05T09:25:37Z</time>
      </trkpt>
      <trkpt lat="44.76389" lon="6.90573">
        <ele>2534.4</ele>
        <time>2011-04-05T09:27:25Z</time>
      </trkpt>
      <trkpt lat="44.76343" lon="6.90596">
        <ele>2530.8</ele>
        <time>2011-04-05T09:28:19Z</time>
      </trkpt>
      <trkpt lat="44.7629" lon="6.90659">
        <ele>2535.8</ele>
        <time>2011-04-05T09:32:38Z</time>
      </trkpt>
      <trkpt lat="44.76242" lon="6.90657">
        <ele>2531.7</ele>
        <time>2011-04-05T09:34:00Z</time>
      </trkpt>
      <trkpt lat="44.76126" lon="6.90682">
        <ele>2526.4</ele>
        <time>2011-04-05T09:35:06Z</time>
      </trkpt>
      <trkpt lat="44.7605" lon="6.90717">
        <ele>2523.6</ele>
        <time>2011-04-05T09:35:44Z</time>
      </trkpt>
      <trkpt lat="44.75995" lon="6.90778">
        <ele>2520.3</ele>
        <time>2011-04-05T09:38:22Z</time>
      </trkpt>
      <trkpt lat="44.75929" lon="6.9083">
        <ele>2513.4</ele>
        <time>2011-04-05T09:38:50Z</time>
      </trkpt>
      <trkpt lat="44.75901" lon="6.90908">
        <ele>2511.3</ele>
        <time>2011-04-05T09:40:50Z</time>
      </trkpt>
      <trkpt lat="44.75852" lon="6.90977">
        <ele>2506.9</ele>
        <time>2011-04-05T09:41:21Z</time>
      </trkpt>
      <trkpt lat="44.75837" lon="6.91014">
        <ele>2508.7</ele>
        <time>2011-04-05T09:52:44Z</time>
      </trkpt>
      <trkpt lat="44.75868" lon="6.9106">
        <ele>2523.9</ele>
        <time>2011-04-05T09:57:06Z</time>
      </trkpt>
      <trkpt lat="44.75899" lon="6.9112">
        <ele>2542.8</ele>
        <time>2011-04-05T09:59:56Z</time>
      </trkpt>
      <trkpt lat="44.75927" lon="6.91175">
        <ele>2557.3</ele>
        <time>2011-04-05T10:01:54Z</time>
      </trkpt>
      <trkpt lat="44.75964" lon="6.91127">
        <ele>2574.4</ele>
        <time>2011-04-05T10:03:41Z</time>
      </trkpt>
      <trkpt lat="44.76014" lon="6.91107">
        <ele>2598</ele>
        <time>2011-04-05T10:06:50Z</time>
      </trkpt>
      <trkpt lat="44.76031" lon="6.91168">
        <ele>2619</ele>
        <time>2011-04-05T10:09:43Z</time>
      </trkpt>
      <trkpt lat="44.76078" lon="6.91161">
        <ele>2647.3</ele>
        <time>2011-04-05T10:14:47Z</time>
      </trkpt>
      <trkpt lat="44.76115" lon="6.91206">
        <ele>2675.7</ele>
        <time>2011-04-05T10:19:09Z</time>
      </trkpt>
      <trkpt lat="44.76168" lon="6.91179">
        <ele>2697</ele>
        <time>2011-04-05T10:22:33Z</time>
      </trkpt>
      <trkpt lat="44.7622" lon="6.91189">
        <ele>2711.7</ele>
        <time>2011-04-05T10:29:58Z</time>
      </trkpt>
      <trkpt lat="44.76186" lon="6.91253">
        <ele>2723.1</ele>
        <time>2011-04-05T10:32:02Z</time>
      </trkpt>
      <trkpt lat="44.76238" lon="6.91247">
        <ele>2735.8</ele>
        <time>2011-04-05T10:33:38Z</time>
      </trkpt>
      <trkpt lat="44.76215" lon="6.91308">
        <ele>2750</ele>
        <time>2011-04-05T10:35:44Z</time>
      </trkpt>
      <trkpt lat="44.7627" lon="6.91312">
        <ele>2766.7</ele>
        <time>2011-04-05T10:38:29Z</time>
      </trkpt>
      <trkpt lat="44.76245" lon="6.91365">
        <ele>2779.4</ele>
        <time>2011-04-05T10:40:04Z</time>
      </trkpt>
      <trkpt lat="44.7629" lon="6.91373">
        <ele>2796.3</ele>
        <time>2011-04-05T10:43:37Z</time>
      </trkpt>
      <trkpt lat="44.76268" lon="6.91435">
        <ele>2814.9</ele>
        <time>2011-04-05T10:46:20Z</time>
      </trkpt>
      <trkpt lat="44.76316" lon="6.91455">
        <ele>2836.3</ele>
        <time>2011-04-05T10:49:48Z</time>
      </trkpt>
      <trkpt lat="44.76365" lon="6.91455">
        <ele>2848.2</ele>
        <time>2011-04-05T10:51:43Z</time>
      </trkpt>
      <trkpt lat="44.76409" lon="6.91467">
        <ele>2861.7</ele>
        <time>2011-04-05T10:53:32Z</time>
      </trkpt>
      <trkpt lat="44.76461" lon="6.91475">
        <ele>2869.7</ele>
        <time>2011-04-05T10:55:39Z</time>
      </trkpt>
      <trkpt lat="44.76482" lon="6.91465">
        <ele>2865</ele>
        <time>2011-04-05T10:57:33Z</time>
      </trkpt>
      <trkpt lat="44.76447" lon="6.91517">
        <ele>2876</ele>
        <time>2011-04-05T10:59:44Z</time>
      </trkpt>
      <trkpt lat="44.76408" lon="6.91566">
        <ele>2885.1</ele>
        <time>2011-04-05T11:01:45Z</time>
      </trkpt>
      <trkpt lat="44.76359" lon="6.91605">
        <ele>2892.3</ele>
        <time>2011-04-05T11:02:59Z</time>
      </trkpt>
      <trkpt lat="44.76319" lon="6.91634">
        <ele>2896.1</ele>
        <time>2011-04-05T11:09:00Z</time>
      </trkpt>
      <trkpt lat="44.763" lon="6.91704">
        <ele>2884.3</ele>
        <time>2011-04-05T11:10:09Z</time>
      </trkpt>
      <trkpt lat="44.76272" lon="6.91724">
        <ele>2885.7</ele>
        <time>2011-04-05T11:12:00Z</time>
      </trkpt>
      <trkpt lat="44.76245" lon="6.91785">
        <ele>2872.3</ele>
        <time>2011-04-05T11:13:20Z</time>
      </trkpt>
      <trkpt lat="44.76216" lon="6.91844">
        <ele>2860.4</ele>
        <time>2011-04-05T11:14:01Z</time>
      </trkpt>
      <trkpt lat="44.76168" lon="6.91905">
        <ele>2841.7</ele>
        <time>2011-04-05T11:16:49Z</time>
      </trkpt>
      <trkpt lat="44.76156" lon="6.91948">
        <ele>2830.4</ele>
        <time>2011-04-05T11:19:30Z</time>
      </trkpt>
      <trkpt lat="44.76143" lon="6.91927">
        <ele>2834</ele>
        <time>2011-04-05T11:21:37Z</time>
      </trkpt>
      <trkpt lat="44.76142" lon="6.91929">
        <ele>2833.7</ele>
        <time>2011-04-05T11:24:45Z</time>
      </trkpt>
      <trkpt lat="44.76132" lon="6.92004">
        <ele>2826.4</ele>
        <time>2011-04-05T11:34:04Z</time>
      </trkpt>
      <trkpt lat="44.76115" lon="6.92076">
        <ele>2820.3</ele>
        <time>2011-04-05T11:35:04Z</time>
      </trkpt>
      <trkpt lat="44.76082" lon="6.92148">
        <ele>2837.3</ele>
        <time>2011-04-05T11:37:37Z</time>
      </trkpt>
      <trkpt lat="44.76046" lon="6.922">
        <ele>2845.8</ele>
        <time>2011-04-05T11:39:10Z</time>
      </trkpt>
      <trkpt lat="44.76008" lon="6.92231">
        <ele>2856.8</ele>
        <time>2011-04-05T11:40:36Z</time>
      </trkpt>
      <trkpt lat="44.76001" lon="6.9226">
        <ele>2860.2</ele>
        <time>2011-04-05T11:48:43Z</time>
      </trkpt>
      <trkpt lat="44.76" lon="6.92268">
        <ele>2858.4</ele>
        <time>2011-04-05T11:58:48Z</time>
      </trkpt>
      <trkpt lat="44.76014" lon="6.92328">
        <ele>2834.4</ele>
        <time>2011-04-05T12:00:54Z</time>
      </trkpt>
      <trkpt lat="44.76038" lon="6.92397">
        <ele>2812.6</ele>
        <time>2011-04-05T12:04:46Z</time>
      </trkpt>
      <trkpt lat="44.76065" lon="6.92451">
        <ele>2800.8</ele>
        <time>2011-04-05T12:06:36Z</time>
      </trkpt>
      <trkpt lat="44.76109" lon="6.92409">
        <ele>2775.9</ele>
        <time>2011-04-05T12:08:46Z</time>
      </trkpt>
      <trkpt lat="44.76129" lon="6.92349">
        <ele>2763.2</ele>
        <time>2011-04-05T12:09:20Z</time>
      </trkpt>
      <trkpt lat="44.76172" lon="6.92329">
        <ele>2737</ele>
        <time>2011-04-05T12:10:52Z</time>
      </trkpt>
      <trkpt lat="44.76224" lon="6.92309">
        <ele>2705</ele>
        <time>2011-04-05T12:11:51Z</time>
      </trkpt>
      <trkpt lat="44.76286" lon="6.92314">
        <ele>2668.2</ele>
        <time>2011-04-05T12:12:41Z</time>
      </trkpt>
      <trkpt lat="44.76339" lon="6.92311">
        <ele>2641.6</ele>
        <time>2011-04-05T12:12:54Z</time>
      </trkpt>
      <trkpt lat="44.76392" lon="6.92338">
        <ele>2620.5</ele>
        <time>2011-04-05T12:14:24Z</time>
      </trkpt>
      <trkpt lat="44.76411" lon="6.92268">
        <ele>2600.9</ele>
        <time>2011-04-05T12:17:06Z</time>
      </trkpt>
      <trkpt lat="44.76527" lon="6.92155">
        <ele>2548.2</ele>
        <time>2011-04-05T12:17:25Z</time>
      </trkpt>
      <trkpt lat="44.76572" lon="6.92133">
        <ele>2536.9</ele>
        <time>2011-04-05T12:17:32Z</time>
      </trkpt>
      <trkpt lat="44.7665" lon="6.92097">
        <ele>2524.2</ele>
        <time>2011-04-05T12:17:45Z</time>
      </trkpt>
      <trkpt lat="44.76695" lon="6.92053">
        <ele>2511.8</ele>
        <time>2011-04-05T12:18:55Z</time>
      </trkpt>
      <trkpt lat="44.7674" lon="6.92022">
        <ele>2503.8</ele>
        <time>2011-04-05T12:19:02Z</time>
      </trkpt>
      <trkpt lat="44.76785" lon="6.91983">
        <ele>2494.6</ele>
        <time>2011-04-05T12:19:19Z</time>
      </trkpt>
      <trkpt lat="44.76827" lon="6.91953">
        <ele>2472.8</ele>
        <time>2011-04-05T12:20:22Z</time>
      </trkpt>
      <trkpt lat="44.76875" lon="6.91926">
        <ele>2448.7</ele>
        <time>2011-04-05T12:20:30Z</time>
      </trkpt>
      <trkpt lat="44.76923" lon="6.91897">
        <ele>2429.8</ele>
        <time>2011-04-05T12:20:37Z</time>
      </trkpt>
      <trkpt lat="44.76975" lon="6.91873">
        <ele>2411.8</ele>
        <time>2011-04-05T12:20:50Z</time>
      </trkpt>
      <trkpt lat="44.77013" lon="6.9192">
        <ele>2392.2</ele>
        <time>2011-04-05T12:21:19Z</time>
      </trkpt>
      <trkpt lat="44.77076" lon="6.91898">
        <ele>2370.1</ele>
        <time>2011-04-05T12:21:28Z</time>
      </trkpt>
      <trkpt lat="44.77141" lon="6.91838">
        <ele>2353.1</ele>
        <time>2011-04-05T12:21:38Z</time>
      </trkpt>
      <trkpt lat="44.77211" lon="6.91799">
        <ele>2339</ele>
        <time>2011-04-05T12:21:47Z</time>
      </trkpt>
      <trkpt lat="44.77262" lon="6.91767">
        <ele>2320.5</ele>
        <time>2011-04-05T12:25:28Z</time>
      </trkpt>
      <trkpt lat="44.7731" lon="6.91733">
        <ele>2301.7</ele>
        <time>2011-04-05T12:25:40Z</time>
      </trkpt>
      <trkpt lat="44.77362" lon="6.91744">
        <ele>2291.8</ele>
        <time>2011-04-05T12:26:41Z</time>
      </trkpt>
      <trkpt lat="44.77412" lon="6.91745">
        <ele>2280.2</ele>
        <time>2011-04-05T12:27:13Z</time>
      </trkpt>
      <trkpt lat="44.77469" lon="6.91733">
        <ele>2262.8</ele>
        <time>2011-04-05T12:27:58Z</time>
      </trkpt>
      <trkpt lat="44.77523" lon="6.91681">
        <ele>2240.6</ele>
        <time>2011-04-05T12:28:18Z</time>
      </trkpt>
      <trkpt lat="44.77545" lon="6.91607">
        <ele>2221</ele>
        <time>2011-04-05T12:28:38Z</time>
      </trkpt>
      <trkpt lat="44.77595" lon="6.9157">
        <ele>2203.5</ele>
        <time>2011-04-05T12:30:15Z</time>
      </trkpt>
      <trkpt lat="44.77641" lon="6.91545">
        <ele>2191.7</ele>
        <time>2011-04-05T12:30:27Z</time>
      </trkpt>
      <trkpt lat="44.77718" lon="6.91555">
        <ele>2180.1</ele>
        <time>2011-04-05T12:30:42Z</time>
      </trkpt>
      <trkpt lat="44.77775" lon="6.91584">
        <ele>2171.7</ele>
        <time>2011-04-05T12:34:20Z</time>
      </trkpt>
      <trkpt lat="44.77817" lon="6.91605">
        <ele>2171.2</ele>
        <time>2011-04-05T12:35:02Z</time>
      </trkpt>
      <trkpt lat="44.77872" lon="6.91628">
        <ele>2169.4</ele>
        <time>2011-04-05T12:36:19Z</time>
      </trkpt>
      <trkpt lat="44.7794" lon="6.91675">
        <ele>2155.5</ele>
        <time>2011-04-05T12:37:08Z</time>
      </trkpt>
      <trkpt lat="44.78005" lon="6.9173">
        <ele>2131.9</ele>
        <time>2011-04-05T12:37:22Z</time>
      </trkpt>
      <trkpt lat="44.7805" lon="6.91747">
        <ele>2123.4</ele>
        <time>2011-04-05T12:39:05Z</time>
      </trkpt>
      <trkpt lat="44.781" lon="6.91756">
        <ele>2112.3</ele>
        <time>2011-04-05T12:39:34Z</time>
      </trkpt>
      <trkpt lat="44.78158" lon="6.91766">
        <ele>2097.3</ele>
        <time>2011-04-05T12:40:45Z</time>
      </trkpt>
      <trkpt lat="44.78219" lon="6.91799">
        <ele>2073.5</ele>
        <time>2011-04-05T12:41:14Z</time>
      </trkpt>
      <trkpt lat="44.78282" lon="6.91829">
        <ele>2051.7</ele>
        <time>2011-04-05T12:41:44Z</time>
      </trkpt>
      <trkpt lat="44.78313" lon="6.91866">
        <ele>2041.6</ele>
        <time>2011-04-05T12:42:06Z</time>
      </trkpt>
      <trkpt lat="44.78349" lon="6.91919">
        <ele>2027.5</ele>
        <time>2011-04-05T12:42:57Z</time>
      </trkpt>
      <trkpt lat="44.78397" lon="6.91933">
        <ele>2008</ele>
        <time>2011-04-05T12:43:29Z</time>
      </trkpt>
      <trkpt lat="44.78447" lon="6.91952">
        <ele>1984.8</ele>
        <time>2011-04-05T12:44:23Z</time>
      </trkpt>
      <trkpt lat="44.78461" lon="6.92015">
        <ele>1976</ele>
        <time>2011-04-05T12:44:47Z</time>
      </trkpt>
      <trkpt lat="44.78504" lon="6.92039">
        <ele>1953.6</ele>
        <time>2011-04-05T12:45:17Z</time>
      </trkpt>
      <trkpt lat="44.78558" lon="6.92064">
        <ele>1933.2</ele>
        <time>2011-04-05T12:45:40Z</time>
      </trkpt>
      <trkpt lat="44.78608" lon="6.92054">
        <ele>1915.1</ele>
        <time>2011-04-05T12:46:31Z</time>
      </trkpt>
      <trkpt lat="44.78652" lon="6.92081">
        <ele>1893.6</ele>
        <time>2011-04-05T12:46:57Z</time>
      </trkpt>
      <trkpt lat="44.78685" lon="6.92125">
        <ele>1873.9</ele>
        <time>2011-04-05T12:50:18Z</time>
      </trkpt>
      <trkpt lat="44.78722" lon="6.92182">
        <ele>1850.5</ele>
        <time>2011-04-05T12:50:34Z</time>
      </trkpt>
      <trkpt lat="44.78725" lon="6.92267">
        <ele>1841.3</ele>
        <time>2011-04-05T12:52:15Z</time>
      </trkpt>
      <trkpt lat="44.78729" lon="6.92353">
        <ele>1827.6</ele>
        <time>2011-04-05T12:52:30Z</time>
      </trkpt>
      <trkpt lat="44.7871" lon="6.92406">
        <ele>1820.4</ele>
        <time>2011-04-05T12:53:54Z</time>
      </trkpt>
      <trkpt lat="44.78696" lon="6.9247">
        <ele>1800.4</ele>
        <time>2011-04-05T12:54:12Z</time>
      </trkpt>
      <trkpt lat="44.78721" lon="6.92522">
        <ele>1770.9</ele>
        <time>2011-04-05T12:55:16Z</time>
      </trkpt>
      <trkpt lat="44.78766" lon="6.92507">
        <ele>1755.1</ele>
        <time>2011-04-05T12:56:56Z</time>
      </trkpt>
      <trkpt lat="44.78854" lon="6.92499">
        <ele>1720.4</ele>
        <time>2011-04-05T12:57:49Z</time>
      </trkpt>
      <trkpt lat="44.78915" lon="6.92504">
        <ele>1701.6</ele>
        <time>2011-04-05T12:58:09Z</time>
      </trkpt>
      <trkpt lat="44.78975" lon="6.92477">
        <ele>1692</ele>
        <time>2011-04-05T12:58:38Z</time>
      </trkpt>
      <trkpt lat="44.79021" lon="6.92433">
        <ele>1682.7</ele>
        <time>2011-04-05T12:59:23Z</time>
      </trkpt>
      <trkpt lat="44.79028" lon="6.92349">
        <ele>1669.4</ele>
        <time>2011-04-05T12:59:45Z</time>
      </trkpt>
      <trkpt lat="44.79057" lon="6.92295">
        <ele>1640.5</ele>
        <time>2011-04-05T13:00:26Z</time>
      </trkpt>
      <trkpt lat="44.79099" lon="6.9224">
        <ele>1603.4</ele>
        <time>2011-04-05T13:01:16Z</time>
      </trkpt>
      <trkpt lat="44.7915" lon="6.9229">
        <ele>1568.2</ele>
        <time>2011-04-05T13:02:44Z</time>
      </trkpt>
      <trkpt lat="44.79147" lon="6.92354">
        <ele>1576.9</ele>
        <time>2011-04-05T13:05:34Z</time>
      </trkpt>
      <trkpt lat="44.79122" lon="6.92536">
        <ele>1568</ele>
        <time>2011-04-05T13:06:09Z</time>
      </trkpt>
      <trkpt lat="44.79115" lon="6.92609">
        <ele>1560.9</ele>
        <time>2011-04-05T13:06:19Z</time>
      </trkpt>
      <trkpt lat="44.79108" lon="6.92673">
        <ele>1548.8</ele>
        <time>2011-04-05T13:06:30Z</time>
      </trkpt>
      <trkpt lat="44.79137" lon="6.92723">
        <ele>1540.1</ele>
        <time>2011-04-05T13:08:10Z</time>
      </trkpt>
    </trkseg>
  </trk>
</gpx>